WABB/BIK METAR and TAF weather

Enter ICAO airport designator
Station Type Date Time Source
WABB METAR 2018/12/18 17:00 UTC NOAA

WABB 181700Z 28006KT 9000 -RA BKN018 OVC100 25/25 Q1009


Station Type Date Time Source
WABB Decoded METAR 2018/12/18 17:00 UTC NOAA

Biak / Mokmer, Indonesia (WABB) 01-11S 136-07E 11M
Dec 18, 2018 - 12:00 PM EST / 2018.12.18 1700 UTC
Wind: from the W (280 degrees) at 7 MPH (6 KT):0
Visibility: 5 mile(s):0
Sky conditions: overcast
Weather: light rain
Temperature: 77 F (25 C)
Dew Point: 77 F (25 C)
Relative Humidity: 100%
Pressure (altimeter): 29.80 in. Hg (1009 hPa)
ob: WABB 181700Z 28006KT 9000 -RA BKN018 OVC100 25/25 Q1009
cycle: 17

Station Type Date Time Source
WABB TAF 2018/12/18 18:26 UTC NOAA

TAF WABB 181600Z 1818/2000 30006KT 9000 BKN018
TEMPO 1818/1821 RA


Example: see airport list